Observation data for Silverton on 07/07/2020      Previous  Date  Next       Current Mesonet Observations  Soil Data  Daily Summary Page  Observations in Plain Language
KSVS 070500Z 14006KT 23/19 A3008 RMK A01 T02280192  RH  085%=      5-min Rain = 0
KSVS 070505Z 14006KT 23/19 A3008 RMK A01 T02270192  RH  085%=      5-min Rain = 0
KSVS 070510Z 14006KT 23/19 A3008 RMK A01 T02250191  RH  086%=      5-min Rain = 0
KSVS 070515Z 14006KT 22/19 A3008 RMK A01 T02240191  RH  086%=      5-min Rain = 0
KSVS 070520Z 14006KT 22/19 A3008 RMK A01 T02220191  RH  087%=      5-min Rain = 0
KSVS 070525Z 13005KT 22/19 A3008 RMK A01 T02220191  RH  087%=      5-min Rain = 0
KSVS 070530Z 13005KT 22/19 A3008 RMK A01 T02200190  RH  088%=      5-min Rain = 0
KSVS 070535Z 13005KT 22/19 A3008 RMK A01 T02170188  RH  088%=      5-min Rain = 0
KSVS 070540Z 13005KT 22/19 A3008 RMK A01 T02160188  RH  089%=      5-min Rain = 0
KSVS 070545Z 14005KT 22/19 A3008 RMK A01 T02160187  RH  089%=      5-min Rain = 0
KSVS 070550Z 13005KT 21/19 A3007 RMK A01 T02130187  RH  089%=      5-min Rain = 0
KSVS 070555Z 13005KT 21/19 A3007 RMK A01 T02120186  RH  090%=      5-min Rain = 0
KSVS 070600Z 13005KT 21/19 A3007 RMK A01 T02110186  RH  090%=      5-min Rain = 0
KSVS 070605Z 14005KT 21/19 A3007 RMK A01 T02100185  RH  090%=      5-min Rain = 0
KSVS 070610Z 15004KT 21/19 A3007 RMK A01 T02100186  RH  091%=      5-min Rain = 0
KSVS 070615Z 16004KT 21/19 A3007 RMK A01 T02130187  RH  090%=      5-min Rain = 0
KSVS 070620Z 16004KT 21/19 A3007 RMK A01 T02120187  RH  090%=      5-min Rain = 0
KSVS 070625Z 16005KT 21/19 A3006 RMK A01 T02090185  RH  091%=      5-min Rain = 0
KSVS 070630Z 16005KT 21/18 A3006 RMK A01 T02060183  RH  092%=      5-min Rain = 0
KSVS 070635Z 16005KT 21/19 A3006 RMK A01 T02070185  RH  092%=      5-min Rain = 0
KSVS 070640Z 16004KT 21/19 A3006 RMK A01 T02080186  RH  092%=      5-min Rain = 0
KSVS 070645Z 15004KT 21/19 A3006 RMK A01 T02080187  RH  092%=      5-min Rain = 0
KSVS 070650Z 18003KT 21/19 A3006 RMK A01 T02080187  RH  093%=      5-min Rain = 0
KSVS 070655Z 21004KT 20/18 A3006 RMK A01 T01970176  RH  092%=      5-min Rain = 0
KSVS 070700Z 21004KT 19/18 A3006 RMK A01 T01920176  RH  095%=      5-min Rain = 0
KSVS 070705Z 20004KT 20/18 A3006 RMK A01 T01960182  RH  096%=      5-min Rain = 0
KSVS 070710Z 20004KT 20/18 A3006 RMK A01 T02000184  RH  095%=      5-min Rain = 0
KSVS 070715Z 22004KT 20/18 A3006 RMK A01 T01970178  RH  094%=      5-min Rain = 0
KSVS 070720Z 23004KT 19/18 A3007 RMK A01 T01920176  RH  095%=      5-min Rain = 0
KSVS 070725Z 24003KT 19/18 A3007 RMK A01 T01920176  RH  095%=      5-min Rain = 0
KSVS 070730Z 24003KT 20/18 A3007 RMK A01 T01950177  RH  094%=      5-min Rain = 0
KSVS 070735Z 27003KT 19/17 A3007 RMK A01 T01940174  RH  093%=      5-min Rain = 0
KSVS 070740Z 29002KT 19/17 A3007 RMK A01 T01920173  RH  094%=      5-min Rain = 0
KSVS 070745Z 26002KT 19/17 A3007 RMK A01 T01890171  RH  094%=      5-min Rain = 0
KSVS 070750Z 25002KT 19/17 A3007 RMK A01 T01890173  RH  095%=      5-min Rain = 0
KSVS 070755Z 26002KT 19/18 A3007 RMK A01 T01900175  RH  096%=      5-min Rain = 0
KSVS 070800Z 27002KT 19/17 A3007 RMK A01 T01880173  RH  096%=      5-min Rain = 0
KSVS 070805Z 30002KT 19/17 A3007 RMK A01 T01870173  RH  096%=      5-min Rain = 0
KSVS 070810Z 31002KT 19/17 A3007 RMK A01 T01870173  RH  097%=      5-min Rain = 0
KSVS 070815Z 31001KT 19/18 A3007 RMK A01 T01890176  RH  097%=      5-min Rain = 0
KSVS 070820Z 31000KT 19/18 A3007 RMK A01 T01890176  RH  097%=      5-min Rain = 0
KSVS 070825Z 00000KT 19/18 A3007 RMK A01 T01930180  RH  097%=      5-min Rain = 0
KSVS 070830Z 00000KT 19/18 A3007 RMK A01 T01940179  RH  096%=      5-min Rain = 0
KSVS 070835Z 00000KT 19/18 A3007 RMK A01 T01910175  RH  096%=      5-min Rain = 0
KSVS 070840Z 28001KT 19/18 A3007 RMK A01 T01920178  RH  096%=      5-min Rain = 0
KSVS 070845Z 27002KT 19/18 A3007 RMK A01 T01910177  RH  096%=      5-min Rain = 0
KSVS 070850Z 28002KT 18/17 A3007 RMK A01 T01840170  RH  096%=      5-min Rain = 0
KSVS 070855Z 27002KT 18/17 A3007 RMK A01 T01810167  RH  096%=      5-min Rain = 0
KSVS 070900Z 27000KT 18/17 A3007 RMK A01 T01830170  RH  097%=      5-min Rain = 0
KSVS 070905Z 24001KT 19/17 A3006 RMK A01 T01860174  RH  098%=      5-min Rain = 0
KSVS 070910Z 23000KT 19/18 A3007 RMK A01 T01870175  RH  098%=      5-min Rain = 0
KSVS 070915Z 00000KT 19/18 A3007 RMK A01 T01880176  RH  098%=      5-min Rain = 0
KSVS 070920Z 00000KT 19/18 A3007 RMK A01 T01880177  RH  098%=      5-min Rain = 0
KSVS 070925Z 00000KT 18/17 A3007 RMK A01 T01800167  RH  097%=      5-min Rain = 0
KSVS 070930Z 31000KT 19/18 A3006 RMK A01 T01850175  RH  099%=      5-min Rain = 0
KSVS 070935Z 32000KT 18/17 A3007 RMK A01 T01840174  RH  098%=      5-min Rain = 0
KSVS 070940Z 30001KT 18/17 A3007 RMK A01 T01790168  RH  098%=      5-min Rain = 0
KSVS 070945Z 31001KT 18/17 A3007 RMK A01 T01780167  RH  098%=      5-min Rain = 0
KSVS 070950Z 02001KT 18/17 A3007 RMK A01 T01810171  RH  099%=      5-min Rain = 0
KSVS 070955Z 04002KT 18/17 A3007 RMK A01 T01780167  RH  098%=      5-min Rain = 0
KSVS 071000Z 05005KT 18/17 A3007 RMK A01 T01750165  RH  098%=      5-min Rain = 0
KSVS 071005Z 03003KT 18/17 A3008 RMK A01 T01770166  RH  098%=      5-min Rain = 0
KSVS 071010Z 36003KT 18/17 A3008 RMK A01 T01760165  RH  098%=      5-min Rain = 0
KSVS 071015Z 34003KT 17/16 A3008 RMK A01 T01740163  RH  098%=      5-min Rain = 0
KSVS 071020Z 33003KT 17/16 A3007 RMK A01 T01720161  RH  098%=      5-min Rain = 0
KSVS 071025Z 32004KT 17/16 A3008 RMK A01 T01740164  RH  098%=      5-min Rain = 0
KSVS 071030Z 35004KT 18/17 A3008 RMK A01 T01780168  RH  099%=      5-min Rain = 0
KSVS 071035Z 36003KT 18/17 A3007 RMK A01 T01810171  RH  099%=      5-min Rain = 0
KSVS 071040Z 01004KT 18/17 A3007 RMK A01 T01790167  RH  098%=      5-min Rain = 0
KSVS 071045Z 02004KT 18/17 A3008 RMK A01 T01800169  RH  098%=      5-min Rain = 0
KSVS 071050Z 04005KT 18/17 A3008 RMK A01 T01810170  RH  098%=      5-min Rain = 0
KSVS 071055Z 04005KT 18/17 A3008 RMK A01 T01810170  RH  098%=      5-min Rain = 0
KSVS 071100Z 04005KT 18/17 A3008 RMK A01 T01810170  RH  098%=      5-min Rain = 0
KSVS 071105Z 04004KT 18/17 A3008 RMK A01 T01810170  RH  098%=      5-min Rain = 0
KSVS 071110Z 04004KT 18/17 A3008 RMK A01 T01790168  RH  097%=      5-min Rain = 0
KSVS 071115Z 04003KT 18/17 A3007 RMK A01 T01790168  RH  098%=      5-min Rain = 0
KSVS 071120Z 05004KT 18/17 A3007 RMK A01 T01790167  RH  098%=      5-min Rain = 0
KSVS 071125Z 05004KT 18/17 A3008 RMK A01 T01770166  RH  098%=      5-min Rain = 0
KSVS 071130Z 05004KT 18/17 A3008 RMK A01 T01790168  RH  098%=      5-min Rain = 0
KSVS 071135Z 05004KT 18/17 A3007 RMK A01 T01780167  RH  098%=      5-min Rain = 0
KSVS 071140Z 06004KT 18/17 A3007 RMK A01 T01810170  RH  098%=      5-min Rain = 0
KSVS 071145Z 06004KT 18/17 A3007 RMK A01 T01810171  RH  098%=      5-min Rain = 0
KSVS 071150Z 06005KT 18/17 A3007 RMK A01 T01820171  RH  098%=      5-min Rain = 0
KSVS 071155Z 06004KT 18/17 A3007 RMK A01 T01820171  RH  098%=      5-min Rain = 0
KSVS 071200Z 05004KT 18/17 A3007 RMK A01 T01810170  RH  098%=      5-min Rain = 0
KSVS 071205Z 06004KT 18/17 A3007 RMK A01 T01830171  RH  098%=      5-min Rain = 0
KSVS 071210Z 06004KT 19/17 A3008 RMK A01 T01850172  RH  097%=      5-min Rain = 0
KSVS 071215Z 06004KT 19/17 A3008 RMK A01 T01880173  RH  096%=      5-min Rain = 0
KSVS 071220Z 06003KT 19/18 A3008 RMK A01 T01930175  RH  094%=      5-min Rain = 0
KSVS 071225Z 07003KT 20/18 A3008 RMK A01 T01980176  RH  092%=      5-min Rain = 0
KSVS 071230Z 08002KT 21/18 A3008 RMK A01 T02050180  RH  090%=      5-min Rain = 0
KSVS 071235Z 07002KT 21/18 A3008 RMK A01 T02110181  RH  088%=      5-min Rain = 0
KSVS 071240Z 06002KT 21/18 A3008 RMK A01 T02130182  RH  087%=      5-min Rain = 0
KSVS 071245Z 07001KT 22/18 A3008 RMK A01 T02160183  RH  086%=      5-min Rain = 0
KSVS 071250Z 09000KT 22/19 A3008 RMK A01 T02230185  RH  083%=      5-min Rain = 0
KSVS 071255Z 10001KT 22/18 A3008 RMK A01 T02240184  RH  082%=      5-min Rain = 0
KSVS 071300Z 10001KT 23/19 A3008 RMK A01 T02260185  RH  082%=      5-min Rain = 0
KSVS 071305Z 10001KT 23/19 A3008 RMK A01 T02250185  RH  082%=      5-min Rain = 0
KSVS 071310Z 11003KT 23/19 A3008 RMK A01 T02270187  RH  083%=      5-min Rain = 0
KSVS 071315Z 12003KT 23/19 A3009 RMK A01 T02260190  RH  084%=      5-min Rain = 0
KSVS 071320Z 12003KT 23/19 A3009 RMK A01 T02280193  RH  085%=      5-min Rain = 0
KSVS 071325Z 12003KT 23/19 A3009 RMK A01 T02300193  RH  084%=      5-min Rain = 0
KSVS 071330Z 13003KT 23/19 A3009 RMK A01 T02310193  RH  083%=      5-min Rain = 0
KSVS 071335Z 12003KT 23/19 A3009 RMK A01 T02330190  RH  081%=      5-min Rain = 0
KSVS 071340Z 11004KT 23/19 A3009 RMK A01 T02340188  RH  080%=      5-min Rain = 0
KSVS 071345Z 10004KT 24/19 A3009 RMK A01 T02360188  RH  078%=      5-min Rain = 0
KSVS 071350Z 10003KT 24/19 A3009 RMK A01 T02400187  RH  076%=      5-min Rain = 0
KSVS 071355Z 10003KT 24/19 A3009 RMK A01 T02440185  RH  074%=      5-min Rain = 0
KSVS 071400Z 10003KT 24/18 A3009 RMK A01 T02440181  RH  072%=      5-min Rain = 0
KSVS 071405Z 12004KT 25/18 A301 RMK A01 T02450181  RH  071%=      5-min Rain = 0
KSVS 071410Z 11004KT 25/18 A301 RMK A01 T02480182  RH  071%=      5-min Rain = 0
KSVS 071415Z 09005KT 25/18 A301 RMK A01 T02480181  RH  070%=      5-min Rain = 0
KSVS 071420Z 09005KT 25/18 A301 RMK A01 T02510178  RH  068%=      5-min Rain = 0
KSVS 071425Z 10006KT 25/18 A301 RMK A01 T02520177  RH  067%=      5-min Rain = 0
KSVS 071430Z 10006KT 25/18 A301 RMK A01 T02540177  RH  066%=      5-min Rain = 0
KSVS 071435Z 09006KT 25/18 A301 RMK A01 T02530176  RH  065%=      5-min Rain = 0
KSVS 071440Z 10005KT 26/18 A301 RMK A01 T02550176  RH  065%=      5-min Rain = 0
KSVS 071445Z 09005KT 26/17 A301 RMK A01 T02550173  RH  064%=      5-min Rain = 0
KSVS 071450Z 10005KT 26/18 A301 RMK A01 T02550176  RH  065%=      5-min Rain = 0
KSVS 071455Z 11005KT 26/18 A301 RMK A01 T02600178  RH  064%=      5-min Rain = 0
KSVS 071500Z 12004KT 27/18 A301 RMK A01 T02650179  RH  062%=      5-min Rain = 0
KSVS 071505Z 15005KT 26/18 A301 RMK A01 T02640175  RH  061%=      5-min Rain = 0
KSVS 071510Z 12004KT 26/18 A3009 RMK A01 T02620175  RH  062%=      5-min Rain = 0
KSVS 071515Z 13006KT 26/18 A3009 RMK A01 T02630176  RH  062%=      5-min Rain = 0
KSVS 071520Z 14004KT 27/18 A3009 RMK A01 T02650176  RH  061%=      5-min Rain = 0
KSVS 071525Z 11005KT 27/17 A3009 RMK A01 T02660174  RH  060%=      5-min Rain = 0
KSVS 071530Z 12004KT 27/17 A3009 RMK A01 T02700174  RH  058%=      5-min Rain = 0
KSVS 071535Z 11004KT 27/17 A3009 RMK A01 T02680174  RH  059%=      5-min Rain = 0
KSVS 071540Z 10005KT 27/17 A3009 RMK A01 T02700171  RH  057%=      5-min Rain = 0
KSVS 071545Z 09003KT 27/17 A3009 RMK A01 T02720169  RH  056%=      5-min Rain = 0
KSVS 071550Z 12002KT 28/17 A3009 RMK A01 T02750166  RH  054%=      5-min Rain = 0
KSVS 071555Z 15004KT 28/17 A3009 RMK A01 T02780171  RH  055%=      5-min Rain = 0
KSVS 071600Z 12003G8KT 28/17 A3009 RMK A01 T02770174  RH  056%=      5-min Rain = 0
KSVS 071605Z 10005KT 28/17 A3009 RMK A01 T02760173  RH  056%=      5-min Rain = 0
KSVS 071610Z 07006KT 28/17 A3009 RMK A01 T02770172  RH  055%=      5-min Rain = 0
KSVS 071615Z 09005KT 28/17 A3009 RMK A01 T02770165  RH  053%=      5-min Rain = 0
KSVS 071620Z 06002KT 28/16 A3009 RMK A01 T02760162  RH  052%=      5-min Rain = 0
KSVS 071625Z 13004KT 29/16 A3009 RMK A01 T02850163  RH  050%=      5-min Rain = 0
KSVS 071630Z 14006KT 29/16 A3009 RMK A01 T02850162  RH  050%=      5-min Rain = 0
KSVS 071635Z 10005KT 29/17 A3009 RMK A01 T02850168  RH  051%=      5-min Rain = 0
KSVS 071640Z 13004KT 29/17 A3009 RMK A01 T02880167  RH  051%=      5-min Rain = 0
KSVS 071645Z 12008KT 30/17 A3009 RMK A01 T02950167  RH  049%=      5-min Rain = 0
KSVS 071650Z 12006KT 29/16 A3009 RMK A01 T02880163  RH  049%=      5-min Rain = 0
KSVS 071655Z 09006G11KT 29/17 A3009 RMK A01 T02920165  RH  049%=      5-min Rain = 0
KSVS 071700Z 12006G11KT 29/17 A3009 RMK A01 T02880167  RH  050%=      5-min Rain = 0
KSVS 071705Z 10005G10KT 29/17 A3009 RMK A01 T02900166  RH  049%=      5-min Rain = 0
KSVS 071710Z 10005G10KT 29/16 A3009 RMK A01 T02940164  RH  048%=      5-min Rain = 0
KSVS 071715Z 12005G10KT 30/16 A3009 RMK A01 T02950161  RH  046%=      5-min Rain = 0
KSVS 071720Z 09004G9KT 29/16 A3009 RMK A01 T02930160  RH  047%=      5-min Rain = 0
KSVS 071725Z 11006KT 30/16 A3009 RMK A01 T03010159  RH  044%=      5-min Rain = 0
KSVS 071730Z 08006KT 30/17 A3009 RMK A01 T03000165  RH  047%=      5-min Rain = 0
KSVS 071735Z 10005KT 30/17 A3009 RMK A01 T03030167  RH  046%=      5-min Rain = 0
KSVS 071740Z 06007G12KT 30/17 A3009 RMK A01 T03030165  RH  046%=      5-min Rain = 0
KSVS 071745Z 09007G12KT 31/16 A3009 RMK A01 T03050163  RH  044%=      5-min Rain = 0
KSVS 071750Z 08004G10KT 30/16 A3009 RMK A01 T03010162  RH  045%=      5-min Rain = 0
KSVS 071755Z 06007KT 30/16 A3009 RMK A01 T03010163  RH  046%=      5-min Rain = 0
KSVS 071800Z 10005G10KT 30/16 A3009 RMK A01 T03040163  RH  045%=      5-min Rain = 0
KSVS 071805Z 13008G13KT 30/17 A3009 RMK A01 T03010166  RH  047%=      5-min Rain = 0
KSVS 071810Z 16008KT 31/17 A3008 RMK A01 T03050166  RH  045%=      5-min Rain = 0
KSVS 071815Z 12007G12KT 30/16 A3008 RMK A01 T03030164  RH  045%=      5-min Rain = 0
KSVS 071820Z 13007KT 30/16 A3008 RMK A01 T03030163  RH  045%=      5-min Rain = 0
KSVS 071825Z 10009G15KT 31/16 A3008 RMK A01 T03060164  RH  044%=      5-min Rain = 0
KSVS 071830Z 10009KT 31/16 A3008 RMK A01 T03080163  RH  044%=      5-min Rain = 0
KSVS 071835Z 08005G12KT 31/16 A3008 RMK A01 T03070160  RH  043%=      5-min Rain = 0
KSVS 071840Z 08007KT 31/16 A3008 RMK A01 T03080156  RH  042%=      5-min Rain = 0
KSVS 071845Z 07005G10KT 32/16 A3007 RMK A01 T03170156  RH  040%=      5-min Rain = 0
KSVS 071850Z 10006G12KT 32/16 A3007 RMK A01 T03150164  RH  042%=      5-min Rain = 0
KSVS 071855Z 10007G14KT 31/16 A3007 RMK A01 T03120162  RH  042%=      5-min Rain = 0
KSVS 071900Z 13007G14KT 31/16 A3007 RMK A01 T03120161  RH  042%=      5-min Rain = 0
KSVS 071905Z 13007G12KT 31/16 A3006 RMK A01 T03140160  RH  041%=      5-min Rain = 0
KSVS 071910Z 11007KT 32/16 A3006 RMK A01 T03210158  RH  039%=      5-min Rain = 0
KSVS 071915Z 12008KT 31/15 A3006 RMK A01 T03140154  RH  040%=      5-min Rain = 0
KSVS 071920Z 15008G14KT 32/15 A3006 RMK A01 T03170151  RH  038%=      5-min Rain = 0
KSVS 071925Z 11007KT 32/15 A3006 RMK A01 T03170153  RH  039%=      5-min Rain = 0
KSVS 071930Z 11009KT 32/15 A3006 RMK A01 T03210153  RH  038%=      5-min Rain = 0
KSVS 071935Z 12007KT 32/15 A3006 RMK A01 T03160151  RH  039%=      5-min Rain = 0
KSVS 071940Z 11006G12KT 32/15 A3005 RMK A01 T03150148  RH  038%=      5-min Rain = 0
KSVS 071945Z 13010KT 31/15 A3005 RMK A01 T03140147  RH  038%=      5-min Rain = 0
KSVS 071950Z 15008KT 32/14 A3005 RMK A01 T03210144  RH  036%=      5-min Rain = 0
KSVS 071955Z 13008G15KT 32/15 A3005 RMK A01 T03190146  RH  037%=      5-min Rain = 0
KSVS 072000Z 12007G12KT 33/14 A3004 RMK A01 T03260144  RH  035%=      5-min Rain = 0
KSVS 072005Z 11006G13KT 32/16 A3004 RMK A01 T03230159  RH  039%=      5-min Rain = 0
KSVS 072010Z 13007G13KT 32/16 A3004 RMK A01 T03230159  RH  039%=      5-min Rain = 0
KSVS 072015Z 14007G13KT 32/16 A3004 RMK A01 T03220158  RH  039%=      5-min Rain = 0
KSVS 072020Z 10009G17KT 32/16 A3003 RMK A01 T03240164  RH  040%=      5-min Rain = 0
KSVS 072025Z 09011G19KT 33/17 A3003 RMK A01 T03270169  RH  041%=      5-min Rain = 0
KSVS 072030Z 08012G19KT 32/16 A3003 RMK A01 T03200163  RH  041%=      5-min Rain = 0
KSVS 072035Z 11012G18KT 32/17 A3003 RMK A01 T03170166  RH  042%=      5-min Rain = 0
KSVS 072040Z 11011G16KT 32/17 A3003 RMK A01 T03190167  RH  042%=      5-min Rain = 0
KSVS 072045Z 10010KT 32/17 A3003 RMK A01 T03230166  RH  041%=      5-min Rain = 0
KSVS 072050Z 10008G13KT 32/16 A3003 RMK A01 T03220164  RH  041%=      5-min Rain = 0
KSVS 072055Z 12010G15KT 32/17 A3003 RMK A01 T03230166  RH  041%=      5-min Rain = 0
KSVS 072100Z 13009KT 32/17 A3002 RMK A01 T03220166  RH  041%=      5-min Rain = 0
KSVS 072105Z 11010KT 33/16 A3002 RMK A01 T03270161  RH  039%=      5-min Rain = 0
KSVS 072110Z 12009KT 32/16 A3002 RMK A01 T03230157  RH  039%=      5-min Rain = 0
KSVS 072115Z 11012G17KT 33/17 A3001 RMK A01 T03260165  RH  040%=      5-min Rain = 0
KSVS 072120Z 11009KT 32/16 A3001 RMK A01 T03220163  RH  041%=      5-min Rain = 0
KSVS 072125Z 10010G16KT 32/16 A3001 RMK A01 T03230163  RH  040%=      5-min Rain = 0
KSVS 072130Z 11009G18KT 32/16 A3001 RMK A01 T03240164  RH  040%=      5-min Rain = 0
KSVS 072135Z 13011G16KT 33/16 A30 RMK A01 T03270162  RH  039%=      5-min Rain = 0
KSVS 072140Z 11010G16KT 33/16 A30 RMK A01 T03280159  RH  038%=      5-min Rain = 0
KSVS 072145Z 09007G13KT 32/16 A30 RMK A01 T03240155  RH  038%=      5-min Rain = 0
KSVS 072150Z 10008G14KT 33/16 A30 RMK A01 T03260159  RH  038%=      5-min Rain = 0
KSVS 072155Z 12011G17KT 32/16 A2999 RMK A01 T03240158  RH  039%=      5-min Rain = 0
KSVS 072200Z 11011G16KT 32/15 A2999 RMK A01 T03230154  RH  038%=      5-min Rain = 0
KSVS 072205Z 11010KT 32/16 A2999 RMK A01 T03220155  RH  038%=      5-min Rain = 0
KSVS 072210Z 11009G17KT 32/16 A2999 RMK A01 T03210157  RH  039%=      5-min Rain = 0
KSVS 072215Z 08012G17KT 32/15 A2999 RMK A01 T03230154  RH  038%=      5-min Rain = 0
KSVS 072220Z 11011G16KT 33/15 A2999 RMK A01 T03250154  RH  038%=      5-min Rain = 0
KSVS 072225Z 12008G14KT 33/15 A2999 RMK A01 T03260153  RH  037%=      5-min Rain = 0
KSVS 072230Z 09009G14KT 32/15 A2998 RMK A01 T03240153  RH  037%=      5-min Rain = 0
KSVS 072235Z 10010G18KT 33/15 A2998 RMK A01 T03250150  RH  037%=      5-min Rain = 0
KSVS 072240Z 13010G15KT 32/15 A2998 RMK A01 T03210148  RH  037%=      5-min Rain = 0
KSVS 072245Z 11011G18KT 33/15 A2998 RMK A01 T03280149  RH  036%=      5-min Rain = 0
KSVS 072250Z 10009KT 33/14 A2998 RMK A01 T03250144  RH  035%=      5-min Rain = 0
KSVS 072255Z 10010G16KT 33/15 A2997 RMK A01 T03250145  RH  035%=      5-min Rain = 0
KSVS 072300Z 12010G15KT 33/15 A2997 RMK A01 T03260145  RH  035%=      5-min Rain = 0
KSVS 072305Z 11012G17KT 32/14 A2997 RMK A01 T03240143  RH  035%=      5-min Rain = 0
KSVS 072310Z 10010KT 32/14 A2997 RMK A01 T03230141  RH  035%=      5-min Rain = 0
KSVS 072315Z 09008G13KT 32/14 A2997 RMK A01 T03210141  RH  035%=      5-min Rain = 0
KSVS 072320Z 13009KT 32/14 A2997 RMK A01 T03240144  RH  035%=      5-min Rain = 0
KSVS 072325Z 10009KT 32/15 A2997 RMK A01 T03220145  RH  036%=      5-min Rain = 0
KSVS 072330Z 11010G16KT 32/15 A2997 RMK A01 T03210147  RH  036%=      5-min Rain = 0
KSVS 072335Z 10011KT 32/15 A2997 RMK A01 T03200148  RH  037%=      5-min Rain = 0
KSVS 072340Z 12011KT 32/15 A2997 RMK A01 T03200146  RH  036%=      5-min Rain = 0
KSVS 072345Z 12009KT 32/15 A2997 RMK A01 T03190147  RH  037%=      5-min Rain = 0
KSVS 072350Z 13009KT 32/15 A2997 RMK A01 T03200147  RH  037%=      5-min Rain = 0
KSVS 072355Z 12010KT 32/15 A2997 RMK A01 T03180147  RH  037%=      5-min Rain = 0
KSVS 080000Z 13011KT 32/15 A2997 RMK A01 T03170150  RH  038%=      5-min Rain = 0
KSVS 080005Z 13009G14KT 32/15 A2997 RMK A01 T03170150  RH  038%=      5-min Rain = 0
KSVS 080010Z 12010KT 32/15 A2997 RMK A01 T03170149  RH  038%=      5-min Rain = 0
KSVS 080015Z 13011KT 32/15 A2997 RMK A01 T03170147  RH  038%=      5-min Rain = 0
KSVS 080020Z 14010KT 32/15 A2997 RMK A01 T03150146  RH  037%=      5-min Rain = 0
KSVS 080025Z 14010KT 31/15 A2997 RMK A01 T03140146  RH  038%=      5-min Rain = 0
KSVS 080030Z 11011KT 31/15 A2997 RMK A01 T03120147  RH  039%=      5-min Rain = 0
KSVS 080035Z 13010KT 31/15 A2997 RMK A01 T03110148  RH  039%=      5-min Rain = 0
KSVS 080040Z 13009KT 31/15 A2997 RMK A01 T03090147  RH  039%=      5-min Rain = 0
KSVS 080045Z 13011KT 31/15 A2997 RMK A01 T03080149  RH  040%=      5-min Rain = 0
KSVS 080050Z 12011KT 31/15 A2998 RMK A01 T03060149  RH  040%=      5-min Rain = 0
KSVS 080055Z 10011KT 31/15 A2998 RMK A01 T03050147  RH  040%=      5-min Rain = 0
KSVS 080100Z 12010KT 30/15 A2998 RMK A01 T03030148  RH  041%=      5-min Rain = 0
KSVS 080105Z 11010KT 30/15 A2998 RMK A01 T03020148  RH  041%=      5-min Rain = 0
KSVS 080110Z 11011KT 30/15 A2998 RMK A01 T03000150  RH  042%=      5-min Rain = 0
KSVS 080115Z 12010KT 30/16 A2998 RMK A01 T02980155  RH  044%=      5-min Rain = 0
KSVS 080120Z 11012KT 30/16 A2998 RMK A01 T02950155  RH  045%=      5-min Rain = 0
KSVS 080125Z 11011KT 29/16 A2999 RMK A01 T02930157  RH  046%=      5-min Rain = 0
KSVS 080130Z 11010KT 29/16 A2999 RMK A01 T02910158  RH  047%=      5-min Rain = 0
KSVS 080135Z 11010KT 29/16 A2999 RMK A01 T02890158  RH  047%=      5-min Rain = 0
KSVS 080140Z 11009KT 29/16 A2999 RMK A01 T02860158  RH  048%=      5-min Rain = 0
KSVS 080145Z 11010KT 28/16 A2999 RMK A01 T02840158  RH  049%=      5-min Rain = 0
KSVS 080150Z 12009KT 28/16 A30 RMK A01 T02800158  RH  050%=      5-min Rain = 0
KSVS 080155Z 11010KT 28/16 A30 RMK A01 T02780158  RH  050%=      5-min Rain = 0
KSVS 080200Z 11009KT 28/16 A30 RMK A01 T02760159  RH  051%=      5-min Rain = 0
KSVS 080205Z 11010KT 27/16 A30 RMK A01 T02740161  RH  053%=      5-min Rain = 0
KSVS 080210Z 11010KT 27/16 A30 RMK A01 T02730164  RH  054%=      5-min Rain = 0
KSVS 080215Z 12010KT 27/16 A30 RMK A01 T02710164  RH  055%=      5-min Rain = 0
KSVS 080220Z 12010KT 27/16 A30 RMK A01 T02690164  RH  055%=      5-min Rain = 0
KSVS 080225Z 11010KT 27/17 A30 RMK A01 T02670165  RH  056%=      5-min Rain = 0
KSVS 080230Z 11009KT 27/16 A30 RMK A01 T02660164  RH  056%=      5-min Rain = 0
KSVS 080235Z 11009KT 27/16 A30 RMK A01 T02650164  RH  057%=      5-min Rain = 0
KSVS 080240Z 11009KT 26/16 A3001 RMK A01 T02640164  RH  057%=      5-min Rain = 0
KSVS 080245Z 11009KT 26/17 A3001 RMK A01 T02620166  RH  058%=      5-min Rain = 0
KSVS 080250Z 12009KT 26/17 A3001 RMK A01 T02620167  RH  059%=      5-min Rain = 0
KSVS 080255Z 12009KT 26/17 A3001 RMK A01 T02600168  RH  060%=      5-min Rain = 0
KSVS 080300Z 12009KT 26/17 A3001 RMK A01 T02590169  RH  061%=      5-min Rain = 0
KSVS 080305Z 12009KT 26/17 A3002 RMK A01 T02570170  RH  062%=      5-min Rain = 0
KSVS 080310Z 12009KT 26/17 A3002 RMK A01 T02550171  RH  063%=      5-min Rain = 0
KSVS 080315Z 12009KT 25/17 A3002 RMK A01 T02530171  RH  064%=      5-min Rain = 0
KSVS 080320Z 12008KT 25/17 A3002 RMK A01 T02510171  RH  064%=      5-min Rain = 0
KSVS 080325Z 12008KT 25/17 A3002 RMK A01 T02500171  RH  065%=      5-min Rain = 0
KSVS 080330Z 12008KT 25/17 A3003 RMK A01 T02480171  RH  066%=      5-min Rain = 0
KSVS 080335Z 12008KT 25/17 A3003 RMK A01 T02470172  RH  066%=      5-min Rain = 0
KSVS 080340Z 12008KT 25/17 A3003 RMK A01 T02450172  RH  067%=      5-min Rain = 0
KSVS 080345Z 12009KT 24/17 A3003 RMK A01 T02430173  RH  068%=      5-min Rain = 0
KSVS 080350Z 12009KT 24/17 A3002 RMK A01 T02430173  RH  068%=      5-min Rain = 0
KSVS 080355Z 12008KT 24/17 A3002 RMK A01 T02410173  RH  069%=      5-min Rain = 0
KSVS 080400Z 13009KT 24/17 A3002 RMK A01 T02390173  RH  070%=      5-min Rain = 0
KSVS 080405Z 13009KT 24/17 A3002 RMK A01 T02400174  RH  070%=      5-min Rain = 0
KSVS 080410Z 13009KT 24/17 A3002 RMK A01 T02400174  RH  070%=      5-min Rain = 0
KSVS 080415Z 13009KT 24/17 A3002 RMK A01 T02390174  RH  070%=      5-min Rain = 0
KSVS 080420Z 13011KT 24/17 A3002 RMK A01 T02420174  RH  069%=      5-min Rain = 0
KSVS 080425Z 13011KT 24/18 A3002 RMK A01 T02420175  RH  070%=      5-min Rain = 0
KSVS 080430Z 13011KT 24/18 A3002 RMK A01 T02420176  RH  070%=      5-min Rain = 0
KSVS 080435Z 13011KT 24/18 A3002 RMK A01 T02420177  RH  070%=      5-min Rain = 0
KSVS 080440Z 13011KT 24/18 A3002 RMK A01 T02430177  RH  070%=      5-min Rain = 0
KSVS 080445Z 13010KT 24/18 A3002 RMK A01 T02410178  RH  071%=      5-min Rain = 0
KSVS 080450Z 14010KT 24/18 A3002 RMK A01 T02390178  RH  072%=      5-min Rain = 0
KSVS 080455Z 13009KT 24/18 A3002 RMK A01 T02370178  RH  073%=      5-min Rain = 0

Page generated in 0.0091 seconds.